sensor_id;sensor_type;location;lat;lon;timestamp;temperature;humidity
148;DHT22;142;50.652;12.216;2022-09-09T15:39:42;19.90;64.00
148;DHT22;142;50.652;12.216;2022-09-09T15:42:09;20.00;64.40
148;DHT22;142;50.652;12.216;2022-09-09T15:44:41;19.90;63.50
148;DHT22;142;50.652;12.216;2022-09-09T15:47:10;20.00;63.20
148;DHT22;142;50.652;12.216;2022-09-09T15:49:39;20.00;62.40
148;DHT22;142;50.652;12.216;2022-09-09T15:52:06;19.90;60.70
148;DHT22;142;50.652;12.216;2022-09-09T15:54:35;20.00;61.10
148;DHT22;142;50.652;12.216;2022-09-09T15:57:06;20.00;61.00
148;DHT22;142;50.652;12.216;2022-09-09T15:59:36;20.00;60.40
148;DHT22;142;50.652;12.216;2022-09-09T16:02:03;20.10;60.10
148;DHT22;142;50.652;12.216;2022-09-09T16:04:31;20.20;60.20
148;DHT22;142;50.652;12.216;2022-09-09T16:07:02;20.20;59.60
148;DHT22;142;50.652;12.216;2022-09-09T16:09:29;20.20;59.30
148;DHT22;142;50.652;12.216;2022-09-09T16:11:58;20.30;58.70
148;DHT22;142;50.652;12.216;2022-09-09T16:14:27;20.30;58.70
148;DHT22;142;50.652;12.216;2022-09-09T16:16:59;20.30;59.00
148;DHT22;142;50.652;12.216;2022-09-09T16:19:26;20.30;58.60
148;DHT22;142;50.652;12.216;2022-09-09T16:21:53;20.20;58.30
148;DHT22;142;50.652;12.216;2022-09-09T16:24:20;20.20;58.30
148;DHT22;142;50.652;12.216;2022-09-09T16:26:52;20.10;58.00
148;DHT22;142;50.652;12.216;2022-09-09T16:29:20;20.00;57.70
148;DHT22;142;50.652;12.216;2022-09-09T16:31:50;20.00;58.00
148;DHT22;142;50.652;12.216;2022-09-09T16:34:18;19.90;57.40
148;DHT22;142;50.652;12.216;2022-09-09T16:36:46;19.90;57.30
148;DHT22;142;50.652;12.216;2022-09-09T16:39:15;19.80;58.50
148;DHT22;142;50.652;12.216;2022-09-09T16:41:44;19.70;59.50
148;DHT22;142;50.652;12.216;2022-09-09T16:44:14;19.50;60.60
148;DHT22;142;50.652;12.216;2022-09-09T16:46:43;19.30;61.10
148;DHT22;142;50.652;12.216;2022-09-09T16:49:13;19.20;61.80
148;DHT22;142;50.652;12.216;2022-09-09T16:51:42;19.00;62.20
148;DHT22;142;50.652;12.216;2022-09-09T16:54:11;18.70;63.30
148;DHT22;142;50.652;12.216;2022-09-09T16:56:40;18.60;63.70
148;DHT22;142;50.652;12.216;2022-09-09T16:59:09;18.50;64.30
148;DHT22;142;50.652;12.216;2022-09-09T17:01:38;18.40;65.10
148;DHT22;142;50.652;12.216;2022-09-09T17:04:07;18.30;65.60
148;DHT22;142;50.652;12.216;2022-09-09T17:06:36;18.20;65.90
148;DHT22;142;50.652;12.216;2022-09-09T17:09:05;18.10;66.00
148;DHT22;142;50.652;12.216;2022-09-09T17:11:33;18.00;66.50
148;DHT22;142;50.652;12.216;2022-09-09T17:14:01;17.90;66.70
148;DHT22;142;50.652;12.216;2022-09-09T17:16:30;17.80;66.60
148;DHT22;142;50.652;12.216;2022-09-09T17:19:00;17.90;66.90
148;DHT22;142;50.652;12.216;2022-09-09T17:21:30;17.90;66.60
148;DHT22;142;50.652;12.216;2022-09-09T17:23:58;17.80;66.50
148;DHT22;142;50.652;12.216;2022-09-09T17:26:27;17.80;66.30
148;DHT22;142;50.652;12.216;2022-09-09T17:28:56;17.80;66.50
148;DHT22;142;50.652;12.216;2022-09-09T17:31:24;17.70;66.50
148;DHT22;142;50.652;12.216;2022-09-09T17:33:53;17.60;66.50
148;DHT22;142;50.652;12.216;2022-09-09T17:36:22;17.40;66.50
148;DHT22;142;50.652;12.216;2022-09-09T17:38:49;17.40;66.70
148;DHT22;142;50.652;12.216;2022-09-09T17:41:20;17.30;67.00
148;DHT22;142;50.652;12.216;2022-09-09T17:43:47;17.10;67.10
148;DHT22;142;50.652;12.216;2022-09-09T17:46:17;17.20;67.50
148;DHT22;142;50.652;12.216;2022-09-09T17:48:47;17.20;67.40
148;DHT22;142;50.652;12.216;2022-09-09T17:51:16;17.30;67.00
148;DHT22;142;50.652;12.216;2022-09-09T17:53:47;17.30;66.80
148;DHT22;142;50.652;12.216;2022-09-09T17:56:16;17.30;66.70
148;DHT22;142;50.652;12.216;2022-09-09T17:58:47;17.20;66.80
148;DHT22;142;50.652;12.216;2022-09-09T18:01:17;17.20;66.90
148;DHT22;142;50.652;12.216;2022-09-09T18:03:46;17.00;67.20
148;DHT22;142;50.652;12.216;2022-09-09T18:06:15;17.00;67.50
148;DHT22;142;50.652;12.216;2022-09-09T18:08:47;17.00;68.00
148;DHT22;142;50.652;12.216;2022-09-09T18:11:15;17.00;67.80
148;DHT22;142;50.652;12.216;2022-09-09T18:13:49;17.10;67.90
148;DHT22;142;50.652;12.216;2022-09-09T18:16:19;17.20;67.60
148;DHT22;142;50.652;12.216;2022-09-09T18:18:48;17.20;67.30
148;DHT22;142;50.652;12.216;2022-09-09T18:21:17;17.20;66.80
148;DHT22;142;50.652;12.216;2022-09-09T18:23:46;17.20;66.60
148;DHT22;142;50.652;12.216;2022-09-09T18:26:18;17.20;66.60
148;DHT22;142;50.652;12.216;2022-09-09T18:28:50;17.20;66.60
148;DHT22;142;50.652;12.216;2022-09-09T18:31:21;17.30;66.60
148;DHT22;142;50.652;12.216;2022-09-09T18:33:49;17.30;66.40
148;DHT22;142;50.652;12.216;2022-09-09T18:36:20;17.30;66.10
148;DHT22;142;50.652;12.216;2022-09-09T18:38:48;17.30;66.30
148;DHT22;142;50.652;12.216;2022-09-09T18:41:19;17.30;66.30
148;DHT22;142;50.652;12.216;2022-09-09T18:43:47;17.30;66.30
148;DHT22;142;50.652;12.216;2022-09-09T18:46:17;17.30;66.20
148;DHT22;142;50.652;12.216;2022-09-09T18:48:46;17.40;66.00
148;DHT22;142;50.652;12.216;2022-09-09T18:51:17;17.40;65.90
148;DHT22;142;50.652;12.216;2022-09-09T18:53:49;17.40;65.70
148;DHT22;142;50.652;12.216;2022-09-09T18:56:16;17.30;65.60
148;DHT22;142;50.652;12.216;2022-09-09T18:58:43;17.30;65.60
148;DHT22;142;50.652;12.216;2022-09-09T19:01:15;17.20;65.50
148;DHT22;142;50.652;12.216;2022-09-09T19:03:42;17.20;65.90
148;DHT22;142;50.652;12.216;2022-09-09T19:06:12;17.20;66.20
148;DHT22;142;50.652;12.216;2022-09-09T19:08:41;17.20;66.10
148;DHT22;142;50.652;12.216;2022-09-09T19:11:10;17.20;65.70
148;DHT22;142;50.652;12.216;2022-09-09T19:13:38;17.30;65.70
148;DHT22;142;50.652;12.216;2022-09-09T19:16:07;17.20;65.40
148;DHT22;142;50.652;12.216;2022-09-09T19:18:35;17.20;65.30
148;DHT22;142;50.652;12.216;2022-09-09T19:21:10;17.20;65.60
148;DHT22;142;50.652;12.216;2022-09-09T19:23:38;17.20;65.90
148;DHT22;142;50.652;12.216;2022-09-09T19:26:07;17.20;66.20
148;DHT22;142;50.652;12.216;2022-09-09T19:28:36;17.20;66.60
148;DHT22;142;50.652;12.216;2022-09-09T19:31:05;17.20;66.80
148;DHT22;142;50.652;12.216;2022-09-09T19:33:33;17.20;67.20
148;DHT22;142;50.652;12.216;2022-09-09T19:36:03;17.20;67.30
148;DHT22;142;50.652;12.216;2022-09-09T19:38:32;17.20;67.50
148;DHT22;142;50.652;12.216;2022-09-09T19:41:02;17.30;67.70
148;DHT22;142;50.652;12.216;2022-09-09T19:43:30;17.30;67.70
148;DHT22;142;50.652;12.216;2022-09-09T19:45:58;17.30;67.90
148;DHT22;142;50.652;12.216;2022-09-09T19:48:27;17.20;68.00
148;DHT22;142;50.652;12.216;2022-09-09T19:51:02;17.20;68.10
148;DHT22;142;50.652;12.216;2022-09-09T19:53:30;17.20;68.30
148;DHT22;142;50.652;12.216;2022-09-09T19:55:57;17.20;68.30
148;DHT22;142;50.652;12.216;2022-09-09T19:58:25;17.10;68.40
148;DHT22;142;50.652;12.216;2022-09-09T20:00:52;17.10;68.60
148;DHT22;142;50.652;12.216;2022-09-09T20:03:19;17.10;68.60
148;DHT22;142;50.652;12.216;2022-09-09T20:05:47;17.10;68.50
148;DHT22;142;50.652;12.216;2022-09-09T20:08:16;17.00;68.60
148;DHT22;142;50.652;12.216;2022-09-09T20:10:50;17.00;68.80
148;DHT22;142;50.652;12.216;2022-09-09T20:13:17;17.00;68.80
148;DHT22;142;50.652;12.216;2022-09-09T20:15:45;17.00;68.80
148;DHT22;142;50.652;12.216;2022-09-09T20:18:12;17.00;68.80
148;DHT22;142;50.652;12.216;2022-09-09T20:20:40;17.00;68.70
148;DHT22;142;50.652;12.216;2022-09-09T20:23:08;16.90;68.80
148;DHT22;142;50.652;12.216;2022-09-09T20:25:37;16.90;69.00
148;DHT22;142;50.652;12.216;2022-09-09T20:28:04;16.90;68.90
148;DHT22;142;50.652;12.216;2022-09-09T20:30:31;16.90;68.80
148;DHT22;142;50.652;12.216;2022-09-09T20:33:03;16.80;68.70
148;DHT22;142;50.652;12.216;2022-09-09T20:35:30;16.80;68.70
148;DHT22;142;50.652;12.216;2022-09-09T20:37:57;16.70;68.90
148;DHT22;142;50.652;12.216;2022-09-09T20:40:25;16.70;69.00
148;DHT22;142;50.652;12.216;2022-09-09T20:42:53;16.70;69.00
148;DHT22;142;50.652;12.216;2022-09-09T20:45:21;16.70;69.10
148;DHT22;142;50.652;12.216;2022-09-09T20:47:48;16.60;69.10
148;DHT22;142;50.652;12.216;2022-09-09T20:50:15;16.60;69.10
148;DHT22;142;50.652;12.216;2022-09-09T20:55:10;16.70;69.00
148;DHT22;142;50.652;12.216;2022-09-09T20:57:38;16.70;69.00
148;DHT22;142;50.652;12.216;2022-09-09T21:00:07;16.60;68.70
148;DHT22;142;50.652;12.216;2022-09-09T21:02:34;16.60;68.50
148;DHT22;142;50.652;12.216;2022-09-09T21:05:02;16.50;68.70
148;DHT22;142;50.652;12.216;2022-09-09T21:07:29;16.40;68.60
148;DHT22;142;50.652;12.216;2022-09-09T21:09:56;16.40;68.70
148;DHT22;142;50.652;12.216;2022-09-09T21:12:24;16.30;69.00
148;DHT22;142;50.652;12.216;2022-09-09T21:14:50;16.20;69.20
148;DHT22;142;50.652;12.216;2022-09-09T21:17:19;16.10;69.30
148;DHT22;142;50.652;12.216;2022-09-09T21:19:46;16.10;69.30
148;DHT22;142;50.652;12.216;2022-09-09T21:22:13;15.90;69.60
148;DHT22;142;50.652;12.216;2022-09-09T21:24:40;15.90;70.20
148;DHT22;142;50.652;12.216;2022-09-09T21:27:08;15.80;70.40
148;DHT22;142;50.652;12.216;2022-09-09T21:29:35;15.80;70.90
148;DHT22;142;50.652;12.216;2022-09-09T21:32:02;15.80;70.30
148;DHT22;142;50.652;12.216;2022-09-09T21:34:32;15.80;70.20
148;DHT22;142;50.652;12.216;2022-09-09T21:37:00;15.70;70.40
148;DHT22;142;50.652;12.216;2022-09-09T21:39:28;15.70;70.60
148;DHT22;142;50.652;12.216;2022-09-09T21:41:54;15.70;70.70
148;DHT22;142;50.652;12.216;2022-09-09T21:44:23;15.70;70.70
148;DHT22;142;50.652;12.216;2022-09-09T21:46:51;15.70;70.70
148;DHT22;142;50.652;12.216;2022-09-09T21:49:18;15.70;70.40
148;DHT22;142;50.652;12.216;2022-09-09T21:51:46;15.70;70.60
148;DHT22;142;50.652;12.216;2022-09-09T21:54:13;15.80;70.60
148;DHT22;142;50.652;12.216;2022-09-09T21:56:40;15.80;70.60
148;DHT22;142;50.652;12.216;2022-09-09T21:59:07;15.70;70.30
148;DHT22;142;50.652;12.216;2022-09-09T22:01:36;15.70;70.20
148;DHT22;142;50.652;12.216;2022-09-09T22:04:05;15.80;70.00
148;DHT22;142;50.652;12.216;2022-09-09T22:06:32;15.60;69.70
148;DHT22;142;50.652;12.216;2022-09-09T22:09:01;15.50;69.80
148;DHT22;142;50.652;12.216;2022-09-09T22:11:28;15.50;70.20
148;DHT22;142;50.652;12.216;2022-09-09T22:13:56;15.40;70.30
148;DHT22;142;50.652;12.216;2022-09-09T22:16:23;15.40;70.40
148;DHT22;142;50.652;12.216;2022-09-09T22:18:51;15.30;70.60
148;DHT22;142;50.652;12.216;2022-09-09T22:21:19;15.30;70.70
148;DHT22;142;50.652;12.216;2022-09-09T22:23:50;15.30;70.70
148;DHT22;142;50.652;12.216;2022-09-09T22:26:19;15.20;70.70
148;DHT22;142;50.652;12.216;2022-09-09T22:28:47;15.10;70.80
148;DHT22;142;50.652;12.216;2022-09-09T22:31:14;15.00;70.80
148;DHT22;142;50.652;12.216;2022-09-09T22:33:41;15.00;71.00
148;DHT22;142;50.652;12.216;2022-09-09T22:36:09;15.00;71.20
148;DHT22;142;50.652;12.216;2022-09-09T22:38:36;15.00;71.50
148;DHT22;142;50.652;12.216;2022-09-09T22:41:04;14.90;71.60
148;DHT22;142;50.652;12.216;2022-09-09T22:43:33;14.90;71.60
148;DHT22;142;50.652;12.216;2022-09-09T22:46:01;14.90;71.70
148;DHT22;142;50.652;12.216;2022-09-09T22:48:31;14.90;71.80
148;DHT22;142;50.652;12.216;2022-09-09T22:51:00;14.90;71.90
148;DHT22;142;50.652;12.216;2022-09-09T22:53:29;14.90;72.00
148;DHT22;142;50.652;12.216;2022-09-09T22:55:58;14.80;71.90
148;DHT22;142;50.652;12.216;2022-09-09T22:58:27;14.80;72.00
148;DHT22;142;50.652;12.216;2022-09-09T23:00:56;14.80;72.20
148;DHT22;142;50.652;12.216;2022-09-09T23:03:24;14.80;72.00
148;DHT22;142;50.652;12.216;2022-09-09T23:05:55;14.80;72.10
148;DHT22;142;50.652;12.216;2022-09-09T23:08:23;14.70;72.40
148;DHT22;142;50.652;12.216;2022-09-09T23:10:52;14.70;72.50
148;DHT22;142;50.652;12.216;2022-09-09T23:13:21;14.70;72.60
148;DHT22;142;50.652;12.216;2022-09-09T23:15:48;14.70;72.60
148;DHT22;142;50.652;12.216;2022-09-09T23:18:21;14.70;72.60
148;DHT22;142;50.652;12.216;2022-09-09T23:20:55;14.70;72.60
148;DHT22;142;50.652;12.216;2022-09-09T23:23:25;14.70;72.60
148;DHT22;142;50.652;12.216;2022-09-09T23:25:52;14.70;72.50
148;DHT22;142;50.652;12.216;2022-09-09T23:28:20;14.60;72.10
148;DHT22;142;50.652;12.216;2022-09-09T23:30:47;14.40;72.20
148;DHT22;142;50.652;12.216;2022-09-09T23:33:15;14.40;72.90
148;DHT22;142;50.652;12.216;2022-09-09T23:35:43;14.50;73.10
148;DHT22;142;50.652;12.216;2022-09-09T23:38:11;14.40;73.10
148;DHT22;142;50.652;12.216;2022-09-09T23:40:40;14.50;73.30
148;DHT22;142;50.652;12.216;2022-09-09T23:43:08;14.50;73.40
148;DHT22;142;50.652;12.216;2022-09-09T23:45:36;14.50;73.50
148;DHT22;142;50.652;12.216;2022-09-09T23:48:03;14.50;73.50
148;DHT22;142;50.652;12.216;2022-09-09T23:50:30;14.50;73.40
148;DHT22;142;50.652;12.216;2022-09-09T23:52:59;14.50;73.50
148;DHT22;142;50.652;12.216;2022-09-09T23:55:27;14.50;73.40
148;DHT22;142;50.652;12.216;2022-09-09T23:57:55;14.40;73.20
